sensor_id;sensor_type;location;lat;lon;timestamp;pressure;altitude;pressure_sealevel;temperature;humidity
23131;BME280;11734;51.046;13.778;2022-08-14T00:02:22;60057.34;;;19.41;100.00
23131;BME280;11734;51.046;13.778;2022-08-14T00:04:53;59882.25;;;19.40;100.00
23131;BME280;11734;51.046;13.778;2022-08-14T00:07:21;59858.69;;;19.40;100.00
23131;BME280;11734;51.046;13.778;2022-08-14T00:09:49;59730.72;;;19.38;100.00
23131;BME280;11734;51.046;13.778;2022-08-14T00:12:43;59720.72;;;19.36;100.00
23131;BME280;11734;51.046;13.778;2022-08-14T00:15:32;59564.56;;;19.32;100.00
23131;BME280;11734;51.046;13.778;2022-08-14T00:18:13;59416.22;;;19.30;100.00
23131;BME280;11734;51.046;13.778;2022-08-14T00:21:02;59324.97;;;19.29;100.00
23131;BME280;11734;51.046;13.778;2022-08-14T00:23:29;59311.59;;;19.29;100.00
23131;BME280;11734;51.046;13.778;2022-08-14T00:25:59;59223.94;;;19.24;100.00
23131;BME280;11734;51.046;13.778;2022-08-14T00:28:39;59142.88;;;19.23;100.00
23131;BME280;11734;51.046;13.778;2022-08-14T00:31:08;58989.25;;;19.22;100.00
23131;BME280;11734;51.046;13.778;2022-08-14T00:33:36;58955.47;;;19.17;100.00
23131;BME280;11734;51.046;13.778;2022-08-14T00:36:22;58905.94;;;19.10;100.00
23131;BME280;11734;51.046;13.778;2022-08-14T00:39:14;58769.53;;;19.02;100.00
23131;BME280;11734;51.046;13.778;2022-08-14T00:41:46;58662.53;;;18.93;100.00
23131;BME280;11734;51.046;13.778;2022-08-14T00:44:14;58467.09;;;18.95;100.00
23131;BME280;11734;51.046;13.778;2022-08-14T00:47:03;58322.56;;;18.89;100.00
23131;BME280;11734;51.046;13.778;2022-08-14T00:49:37;58243.28;;;18.87;100.00
23131;BME280;11734;51.046;13.778;2022-08-14T00:52:12;58001.78;;;18.86;100.00
23131;BME280;11734;51.046;13.778;2022-08-14T00:54:46;57870.38;;;18.88;100.00
23131;BME280;11734;51.046;13.778;2022-08-14T00:57:18;57737.03;;;18.88;100.00
23131;BME280;11734;51.046;13.778;2022-08-14T00:59:47;57603.13;;;18.93;100.00
23131;BME280;11734;51.046;13.778;2022-08-14T01:02:19;57604.88;;;18.92;100.00
23131;BME280;11734;51.046;13.778;2022-08-14T01:04:56;57603.69;;;18.88;100.00
23131;BME280;11734;51.046;13.778;2022-08-14T01:07:25;57545.31;;;18.85;100.00
23131;BME280;11734;51.046;13.778;2022-08-14T01:10:05;57432.56;;;18.87;100.00
23131;BME280;11734;51.046;13.778;2022-08-14T01:12:32;57374.38;;;18.88;100.00
23131;BME280;11734;51.046;13.778;2022-08-14T01:15:07;57224.59;;;18.87;100.00
23131;BME280;11734;51.046;13.778;2022-08-14T01:17:41;57280.38;;;18.84;100.00
23131;BME280;11734;51.046;13.778;2022-08-14T01:20:27;57277.53;;;18.81;100.00
23131;BME280;11734;51.046;13.778;2022-08-14T01:23:15;57303.34;;;18.74;100.00
23131;BME280;11734;51.046;13.778;2022-08-14T01:25:49;57266.09;;;18.69;100.00
23131;BME280;11734;51.046;13.778;2022-08-14T01:28:19;57185.59;;;18.60;100.00
23131;BME280;11734;51.046;13.778;2022-08-14T01:31:13;57045.09;;;18.58;100.00
23131;BME280;11734;51.046;13.778;2022-08-14T01:33:43;56929.09;;;18.56;100.00
23131;BME280;11734;51.046;13.778;2022-08-14T01:36:33;56866.69;;;18.52;100.00
23131;BME280;11734;51.046;13.778;2022-08-14T01:41:41;56658.19;;;18.40;100.00
23131;BME280;11734;51.046;13.778;2022-08-14T01:44:12;56471.88;;;18.34;100.00
23131;BME280;11734;51.046;13.778;2022-08-14T01:47:04;56278.56;;;18.30;100.00
23131;BME280;11734;51.046;13.778;2022-08-14T01:49:49;56038.28;;;18.26;100.00
23131;BME280;11734;51.046;13.778;2022-08-14T01:52:34;55788.44;;;18.15;100.00
23131;BME280;11734;51.046;13.778;2022-08-14T01:55:26;55218.78;;;18.15;100.00
23131;BME280;11734;51.046;13.778;2022-08-14T01:57:59;54762.81;;;18.17;100.00
23131;BME280;11734;51.046;13.778;2022-08-14T02:00:48;54427.50;;;18.17;100.00
23131;BME280;11734;51.046;13.778;2022-08-14T02:03:26;54098.50;;;18.24;100.00
23131;BME280;11734;51.046;13.778;2022-08-14T02:05:59;53898.06;;;18.26;100.00
23131;BME280;11734;51.046;13.778;2022-08-14T02:08:47;53743.25;;;18.26;100.00
23131;BME280;11734;51.046;13.778;2022-08-14T02:11:23;53491.38;;;18.27;100.00
23131;BME280;11734;51.046;13.778;2022-08-14T02:13:58;53247.03;;;18.24;100.00
23131;BME280;11734;51.046;13.778;2022-08-14T02:16:42;52910.94;;;18.17;100.00
23131;BME280;11734;51.046;13.778;2022-08-14T02:19:17;52497.84;;;18.13;100.00
23131;BME280;11734;51.046;13.778;2022-08-14T02:21:52;52042.19;;;18.15;100.00
23131;BME280;11734;51.046;13.778;2022-08-14T02:24:23;51783.09;;;18.26;100.00
23131;BME280;11734;51.046;13.778;2022-08-14T02:27:11;51900.19;;;18.23;100.00
23131;BME280;11734;51.046;13.778;2022-08-14T02:29:58;51815.06;;;18.23;100.00
23131;BME280;11734;51.046;13.778;2022-08-14T02:32:30;51863.94;;;18.18;100.00
23131;BME280;11734;51.046;13.778;2022-08-14T02:35:08;51957.75;;;18.04;100.00
23131;BME280;11734;51.046;13.778;2022-08-14T02:37:40;51586.31;;;17.92;100.00
23131;BME280;11734;51.046;13.778;2022-08-14T02:40:16;51201.88;;;17.90;100.00
23131;BME280;11734;51.046;13.778;2022-08-14T02:42:45;50817.53;;;17.88;100.00
23131;BME280;11734;51.046;13.778;2022-08-14T02:45:27;50268.53;;;17.86;100.00
23131;BME280;11734;51.046;13.778;2022-08-14T02:48:12;49850.50;;;17.88;100.00
23131;BME280;11734;51.046;13.778;2022-08-14T02:51:03;49279.63;;;17.92;100.00
23131;BME280;11734;51.046;13.778;2022-08-14T02:53:32;48946.22;;;17.93;100.00
23131;BME280;11734;51.046;13.778;2022-08-14T02:56:04;48864.50;;;17.97;100.00
23131;BME280;11734;51.046;13.778;2022-08-14T02:58:52;49056.94;;;17.92;100.00
23131;BME280;11734;51.046;13.778;2022-08-14T03:01:23;48985.66;;;17.93;100.00
23131;BME280;11734;51.046;13.778;2022-08-14T03:03:57;48928.66;;;17.91;100.00
23131;BME280;11734;51.046;13.778;2022-08-14T03:06:25;48825.91;;;17.85;100.00
23131;BME280;11734;51.046;13.778;2022-08-14T03:09:13;48567.13;;;17.84;100.00
23131;BME280;11734;51.046;13.778;2022-08-14T03:11:41;48323.31;;;17.78;100.00
23131;BME280;11734;51.046;13.778;2022-08-14T03:14:11;47846.44;;;17.72;100.00
23131;BME280;11734;51.046;13.778;2022-08-14T03:16:44;47183.25;;;17.69;100.00
23131;BME280;11734;51.046;13.778;2022-08-14T03:19:15;46699.25;;;17.71;100.00
23131;BME280;11734;51.046;13.778;2022-08-14T03:21:46;46286.94;;;17.73;100.00
23131;BME280;11734;51.046;13.778;2022-08-14T03:24:19;46066.03;;;17.76;100.00
23131;BME280;11734;51.046;13.778;2022-08-14T03:26:50;46125.91;;;17.78;100.00
23131;BME280;11734;51.046;13.778;2022-08-14T03:29:23;46078.16;;;17.78;100.00
23131;BME280;11734;51.046;13.778;2022-08-14T03:31:56;46210.00;;;17.73;100.00
23131;BME280;11734;51.046;13.778;2022-08-14T03:34:24;46109.91;;;17.71;100.00
23131;BME280;11734;51.046;13.778;2022-08-14T03:37:12;45740.44;;;17.70;100.00
23131;BME280;11734;51.046;13.778;2022-08-14T03:39:59;45758.22;;;17.62;100.00
23131;BME280;11734;51.046;13.778;2022-08-14T03:42:27;45581.63;;;17.56;100.00
23131;BME280;11734;51.046;13.778;2022-08-14T03:45:03;45189.19;;;17.60;100.00
23131;BME280;11734;51.046;13.778;2022-08-14T03:47:52;44813.47;;;17.61;100.00
23131;BME280;11734;51.046;13.778;2022-08-14T03:50:28;44566.19;;;17.56;100.00
23131;BME280;11734;51.046;13.778;2022-08-14T03:52:59;44401.50;;;17.52;100.00
23131;BME280;11734;51.046;13.778;2022-08-14T03:55:28;44008.50;;;17.51;100.00
23131;BME280;11734;51.046;13.778;2022-08-14T03:57:57;43711.69;;;17.51;100.00
23131;BME280;11734;51.046;13.778;2022-08-14T04:00:27;43127.69;;;17.50;100.00
23131;BME280;11734;51.046;13.778;2022-08-14T04:03:11;42512.19;;;17.52;100.00
23131;BME280;11734;51.046;13.778;2022-08-14T04:05:45;42156.88;;;17.52;100.00
23131;BME280;11734;51.046;13.778;2022-08-14T04:08:15;41493.50;;;17.54;100.00
23131;BME280;11734;51.046;13.778;2022-08-14T04:11:00;41140.50;;;17.60;100.00
23131;BME280;11734;51.046;13.778;2022-08-14T04:13:37;41279.13;;;17.58;100.00
23131;BME280;11734;51.046;13.778;2022-08-14T04:16:13;41125.19;;;17.57;100.00
23131;BME280;11734;51.046;13.778;2022-08-14T04:18:42;40879.94;;;17.59;100.00
23131;BME280;11734;51.046;13.778;2022-08-14T04:21:13;40585.75;;;17.62;100.00
23131;BME280;11734;51.046;13.778;2022-08-14T04:23:43;40246.25;;;17.69;100.00
23131;BME280;11734;51.046;13.778;2022-08-14T04:26:15;40245.00;;;17.75;100.00
23131;BME280;11734;51.046;13.778;2022-08-14T04:29:04;40974.75;;;17.77;100.00
23131;BME280;11734;51.046;13.778;2022-08-14T04:31:41;41394.34;;;17.79;100.00
23131;BME280;11734;51.046;13.778;2022-08-14T04:34:29;41307.25;;;17.79;100.00
23131;BME280;11734;51.046;13.778;2022-08-14T04:36:56;41159.13;;;17.87;100.00
23131;BME280;11734;51.046;13.778;2022-08-14T04:39:48;41533.22;;;17.92;100.00
23131;BME280;11734;51.046;13.778;2022-08-14T04:42:36;42260.78;;;17.86;100.00
23131;BME280;11734;51.046;13.778;2022-08-14T04:45:27;42004.59;;;17.84;100.00
23131;BME280;11734;51.046;13.778;2022-08-14T04:48:08;41945.72;;;17.95;100.00
23131;BME280;11734;51.046;13.778;2022-08-14T04:50:50;42323.00;;;18.00;100.00
23131;BME280;11734;51.046;13.778;2022-08-14T04:53:23;42792.69;;;18.08;100.00
23131;BME280;11734;51.046;13.778;2022-08-14T04:56:01;43347.91;;;18.13;100.00
23131;BME280;11734;51.046;13.778;2022-08-14T04:58:34;43965.50;;;18.16;100.00
23131;BME280;11734;51.046;13.778;2022-08-14T05:01:06;44242.03;;;18.24;100.00
23131;BME280;11734;51.046;13.778;2022-08-14T05:03:45;44825.81;;;18.27;100.00
23131;BME280;11734;51.046;13.778;2022-08-14T05:06:13;45073.78;;;18.22;100.00
23131;BME280;11734;51.046;13.778;2022-08-14T05:09:01;45273.22;;;18.29;100.00
23131;BME280;11734;51.046;13.778;2022-08-14T05:11:28;45401.03;;;18.41;100.00
23131;BME280;11734;51.046;13.778;2022-08-14T05:14:03;46216.31;;;18.48;100.00
23131;BME280;11734;51.046;13.778;2022-08-14T05:16:51;46462.03;;;18.60;100.00
23131;BME280;11734;51.046;13.778;2022-08-14T05:19:22;46866.22;;;18.74;100.00
23131;BME280;11734;51.046;13.778;2022-08-14T05:21:57;47526.00;;;18.81;100.00
23131;BME280;11734;51.046;13.778;2022-08-14T05:24:46;48218.22;;;18.86;100.00
23131;BME280;11734;51.046;13.778;2022-08-14T05:27:17;48552.16;;;18.78;100.00
23131;BME280;11734;51.046;13.778;2022-08-14T05:29:53;48654.59;;;18.83;100.00
23131;BME280;11734;51.046;13.778;2022-08-14T05:32:24;48971.69;;;18.87;100.00
23131;BME280;11734;51.046;13.778;2022-08-14T05:34:56;49130.25;;;18.96;100.00
23131;BME280;11734;51.046;13.778;2022-08-14T05:37:25;49253.06;;;19.09;100.00
23131;BME280;11734;51.046;13.778;2022-08-14T05:39:54;49773.16;;;19.20;100.00
23131;BME280;11734;51.046;13.778;2022-08-14T05:42:22;49934.44;;;19.32;100.00
23131;BME280;11734;51.046;13.778;2022-08-14T05:44:58;50335.09;;;19.34;100.00
23131;BME280;11734;51.046;13.778;2022-08-14T05:47:26;50723.81;;;19.46;100.00
23131;BME280;11734;51.046;13.778;2022-08-14T05:50:07;51082.91;;;19.49;100.00
23131;BME280;11734;51.046;13.778;2022-08-14T05:52:47;51083.44;;;19.59;100.00
23131;BME280;11734;51.046;13.778;2022-08-14T05:55:15;51003.25;;;19.87;100.00
23131;BME280;11734;51.046;13.778;2022-08-14T05:57:53;51067.00;;;20.28;100.00
23131;BME280;11734;51.046;13.778;2022-08-14T06:00:31;51599.47;;;20.77;100.00
23131;BME280;11734;51.046;13.778;2022-08-14T06:03:08;52820.22;;;20.84;100.00
23131;BME280;11734;51.046;13.778;2022-08-14T06:05:37;53189.25;;;20.93;100.00
23131;BME280;11734;51.046;13.778;2022-08-14T06:08:12;53858.13;;;20.88;100.00
23131;BME280;11734;51.046;13.778;2022-08-14T06:11:02;54181.41;;;20.79;100.00
23131;BME280;11734;51.046;13.778;2022-08-14T06:13:36;54332.59;;;20.60;100.00
23131;BME280;11734;51.046;13.778;2022-08-14T06:16:14;54251.63;;;20.65;100.00
23131;BME280;11734;51.046;13.778;2022-08-14T06:18:48;54240.13;;;20.73;100.00
23131;BME280;11734;51.046;13.778;2022-08-14T06:21:20;54242.44;;;20.82;100.00
23131;BME280;11734;51.046;13.778;2022-08-14T06:23:48;54445.69;;;20.94;100.00
23131;BME280;11734;51.046;13.778;2022-08-14T06:26:16;54600.47;;;21.05;100.00
23131;BME280;11734;51.046;13.778;2022-08-14T06:28:49;54667.91;;;20.88;100.00
23131;BME280;11734;51.046;13.778;2022-08-14T06:31:20;54465.44;;;21.04;100.00
23131;BME280;11734;51.046;13.778;2022-08-14T06:33:49;54351.75;;;21.38;100.00
23131;BME280;11734;51.046;13.778;2022-08-14T06:36:36;54216.03;;;21.69;100.00
23131;BME280;11734;51.046;13.778;2022-08-14T06:39:06;54570.28;;;21.76;100.00
23131;BME280;11734;51.046;13.778;2022-08-14T06:41:38;54585.16;;;21.90;100.00
23131;BME280;11734;51.046;13.778;2022-08-14T06:44:25;54719.59;;;21.96;100.00
23131;BME280;11734;51.046;13.778;2022-08-14T06:47:00;54848.63;;;22.00;100.00
23131;BME280;11734;51.046;13.778;2022-08-14T06:49:28;54896.53;;;22.08;100.00
23131;BME280;11734;51.046;13.778;2022-08-14T06:51:56;55128.53;;;22.04;100.00
23131;BME280;11734;51.046;13.778;2022-08-14T06:54:24;55336.97;;;21.86;100.00
23131;BME280;11734;51.046;13.778;2022-08-14T06:56:58;55422.03;;;21.80;100.00
23131;BME280;11734;51.046;13.778;2022-08-14T06:59:25;55303.47;;;21.85;100.00
23131;BME280;11734;51.046;13.778;2022-08-14T07:01:53;55379.81;;;21.86;100.00
23131;BME280;11734;51.046;13.778;2022-08-14T07:04:44;55264.47;;;21.95;100.00
23131;BME280;11734;51.046;13.778;2022-08-14T07:07:39;55431.22;;;21.90;100.00
23131;BME280;11734;51.046;13.778;2022-08-14T07:10:09;55457.06;;;22.03;100.00
23131;BME280;11734;51.046;13.778;2022-08-14T07:12:44;55503.34;;;21.98;100.00
23131;BME280;11734;51.046;13.778;2022-08-14T07:15:30;55306.28;;;22.08;100.00
23131;BME280;11734;51.046;13.778;2022-08-14T07:18:00;55311.41;;;22.17;100.00
23131;BME280;11734;51.046;13.778;2022-08-14T07:20:29;55441.31;;;22.16;100.00
23131;BME280;11734;51.046;13.778;2022-08-14T07:23:07;55430.50;;;22.13;100.00
23131;BME280;11734;51.046;13.778;2022-08-14T07:25:49;55474.00;;;22.19;100.00
23131;BME280;11734;51.046;13.778;2022-08-14T07:28:27;55624.28;;;22.14;100.00
23131;BME280;11734;51.046;13.778;2022-08-14T07:30:56;55690.91;;;22.01;100.00
23131;BME280;11734;51.046;13.778;2022-08-14T07:33:41;55537.94;;;22.07;100.00
23131;BME280;11734;51.046;13.778;2022-08-14T07:36:18;55405.69;;;22.21;100.00
23131;BME280;11734;51.046;13.778;2022-08-14T07:38:58;55256.03;;;22.36;100.00
23131;BME280;11734;51.046;13.778;2022-08-14T07:41:26;55117.09;;;22.54;100.00
23131;BME280;11734;51.046;13.778;2022-08-14T07:44:01;54866.53;;;22.82;100.00
23131;BME280;11734;51.046;13.778;2022-08-14T07:46:49;54794.97;;;23.10;100.00
23131;BME280;11734;51.046;13.778;2022-08-14T07:49:17;54849.34;;;23.29;99.52
23131;BME280;11734;51.046;13.778;2022-08-14T07:51:46;54777.13;;;23.44;99.46
23131;BME280;11734;51.046;13.778;2022-08-14T07:54:17;54687.06;;;23.69;98.00
23131;BME280;11734;51.046;13.778;2022-08-14T07:56:59;54784.69;;;23.76;97.68
23131;BME280;11734;51.046;13.778;2022-08-14T07:59:38;54590.16;;;23.90;97.65
23131;BME280;11734;51.046;13.778;2022-08-14T08:02:12;55029.97;;;23.77;97.33
23131;BME280;11734;51.046;13.778;2022-08-14T08:04:49;55071.59;;;23.79;97.77
23131;BME280;11734;51.046;13.778;2022-08-14T08:07:21;55001.50;;;23.90;96.79
23131;BME280;11734;51.046;13.778;2022-08-14T08:09:57;54988.22;;;24.00;96.57
23131;BME280;11734;51.046;13.778;2022-08-14T08:12:26;54856.81;;;24.15;96.11
23131;BME280;11734;51.046;13.778;2022-08-14T08:14:58;54969.84;;;24.27;94.83
23131;BME280;11734;51.046;13.778;2022-08-14T08:17:35;54728.25;;;24.51;94.29
23131;BME280;11734;51.046;13.778;2022-08-14T08:20:15;54637.97;;;24.76;93.13
23131;BME280;11734;51.046;13.778;2022-08-14T08:22:50;54685.25;;;24.99;91.43
23131;BME280;11734;51.046;13.778;2022-08-14T08:25:23;54833.34;;;25.14;90.01
23131;BME280;11734;51.046;13.778;2022-08-14T08:28:12;54739.78;;;25.33;89.71
23131;BME280;11734;51.046;13.778;2022-08-14T08:30:56;54983.00;;;25.37;88.52
23131;BME280;11734;51.046;13.778;2022-08-14T08:33:29;54998.34;;;25.45;88.50
23131;BME280;11734;51.046;13.778;2022-08-14T08:36:05;54803.41;;;25.71;87.25
23131;BME280;11734;51.046;13.778;2022-08-14T08:38:39;54412.53;;;26.16;85.61
23131;BME280;11734;51.046;13.778;2022-08-14T08:41:41;53703.50;;;26.98;82.10
23131;BME280;11734;51.046;13.778;2022-08-14T08:44:11;54024.63;;;27.56;78.32
23131;BME280;11734;51.046;13.778;2022-08-14T08:46:59;54841.16;;;27.51;77.49
23131;BME280;11734;51.046;13.778;2022-08-14T08:49:40;55623.28;;;27.08;79.32
23131;BME280;11734;51.046;13.778;2022-08-14T08:52:28;55926.19;;;26.73;82.07
23131;BME280;11734;51.046;13.778;2022-08-14T08:54:59;55820.38;;;26.88;80.70
23131;BME280;11734;51.046;13.778;2022-08-14T08:57:35;55357.88;;;27.43;78.00
23131;BME280;11734;51.046;13.778;2022-08-14T09:00:17;55761.09;;;27.35;77.10
23131;BME280;11734;51.046;13.778;2022-08-14T09:03:00;55749.81;;;27.55;76.32
23131;BME280;11734;51.046;13.778;2022-08-14T09:05:31;55307.81;;;28.07;74.19
23131;BME280;11734;51.046;13.778;2022-08-14T09:08:32;54619.38;;;28.60;72.54
23131;BME280;11734;51.046;13.778;2022-08-14T09:11:06;54710.97;;;29.11;70.33
23131;BME280;11734;51.046;13.778;2022-08-14T09:13:52;55299.75;;;28.94;70.74
23131;BME280;11734;51.046;13.778;2022-08-14T09:16:23;55927.22;;;28.82;69.95
23131;BME280;11734;51.046;13.778;2022-08-14T09:18:53;56163.03;;;28.73;70.75
23131;BME280;11734;51.046;13.778;2022-08-14T09:21:22;56950.88;;;28.35;70.81
23131;BME280;11734;51.046;13.778;2022-08-14T09:23:57;57339.47;;;28.20;70.70
23131;BME280;11734;51.046;13.778;2022-08-14T09:26:45;56819.22;;;28.63;69.93
23131;BME280;11734;51.046;13.778;2022-08-14T09:29:17;56780.69;;;28.71;69.60
23131;BME280;11734;51.046;13.778;2022-08-14T09:31:54;56265.81;;;29.06;69.48
23131;BME280;11734;51.046;13.778;2022-08-14T09:46:17;60166.50;;;31.20;58.59
23131;BME280;11734;51.046;13.778;2022-08-14T09:48:59;60493.47;;;31.67;55.80
23131;BME280;11734;51.046;13.778;2022-08-14T09:51:29;60976.28;;;32.20;53.81
23131;BME280;11734;51.046;13.778;2022-08-14T09:54:05;62551.19;;;32.44;47.11
23131;BME280;11734;51.046;13.778;2022-08-14T09:56:49;63773.75;;;31.78;47.95
23131;BME280;11734;51.046;13.778;2022-08-14T09:59:26;64452.66;;;31.78;44.43
23131;BME280;11734;51.046;13.778;2022-08-14T10:02:02;64831.28;;;31.52;45.01
23131;BME280;11734;51.046;13.778;2022-08-14T10:04:34;65192.69;;;31.02;46.47
23131;BME280;11734;51.046;13.778;2022-08-14T10:07:12;65485.34;;;30.59;47.01
23131;BME280;11734;51.046;13.778;2022-08-14T10:09:49;65550.19;;;30.56;47.23
23131;BME280;11734;51.046;13.778;2022-08-14T10:12:46;65586.56;;;30.62;46.96
23131;BME280;11734;51.046;13.778;2022-08-14T10:15:26;65789.63;;;30.08;48.69
23131;BME280;11734;51.046;13.778;2022-08-14T10:18:10;65682.09;;;30.39;47.47
23131;BME280;11734;51.046;13.778;2022-08-14T10:20:58;65485.41;;;30.93;46.71
23131;BME280;11734;51.046;13.778;2022-08-14T10:23:41;65425.16;;;31.46;44.93
23131;BME280;11734;51.046;13.778;2022-08-14T10:26:12;65231.69;;;31.95;43.97
23131;BME280;11734;51.046;13.778;2022-08-14T10:29:04;65071.31;;;32.60;42.35
23131;BME280;11734;51.046;13.778;2022-08-14T10:31:56;65471.91;;;32.47;41.87
23131;BME280;11734;51.046;13.778;2022-08-14T10:34:31;65817.69;;;31.97;42.54
23131;BME280;11734;51.046;13.778;2022-08-14T10:37:12;65874.50;;;31.94;42.78
23131;BME280;11734;51.046;13.778;2022-08-14T10:40:00;66032.38;;;31.73;43.08
23131;BME280;11734;51.046;13.778;2022-08-14T10:42:39;66044.94;;;31.75;43.27
23131;BME280;11734;51.046;13.778;2022-08-14T10:45:23;66458.00;;;31.23;42.47
23131;BME280;11734;51.046;13.778;2022-08-14T10:47:52;66404.56;;;31.24;43.51
23131;BME280;11734;51.046;13.778;2022-08-14T10:50:40;66608.38;;;30.85;44.36
23131;BME280;11734;51.046;13.778;2022-08-14T10:53:13;66755.88;;;30.56;44.36
23131;BME280;11734;51.046;13.778;2022-08-14T10:55:41;66861.59;;;30.58;43.72
23131;BME280;11734;51.046;13.778;2022-08-14T10:58:12;67108.28;;;30.09;44.06
23131;BME280;11734;51.046;13.778;2022-08-14T11:00:52;66868.66;;;30.59;43.50
23131;BME280;11734;51.046;13.778;2022-08-14T11:03:23;66740.81;;;30.92;42.88
23131;BME280;11734;51.046;13.778;2022-08-14T11:06:21;66557.75;;;31.22;43.51
23131;BME280;11734;51.046;13.778;2022-08-14T11:08:51;66351.56;;;31.76;42.45
23131;BME280;11734;51.046;13.778;2022-08-14T11:11:20;66275.03;;;31.96;42.10
23131;BME280;11734;51.046;13.778;2022-08-14T11:13:49;66365.59;;;32.19;40.17
23131;BME280;11734;51.046;13.778;2022-08-14T11:16:17;66603.63;;;32.12;39.54
23131;BME280;11734;51.046;13.778;2022-08-14T11:18:48;66706.84;;;32.37;38.14
23131;BME280;11734;51.046;13.778;2022-08-14T11:21:20;66590.97;;;32.79;38.19
23131;BME280;11734;51.046;13.778;2022-08-14T11:23:49;66580.06;;;32.82;38.14
23131;BME280;11734;51.046;13.778;2022-08-14T11:26:23;66834.75;;;32.87;37.05
23131;BME280;11734;51.046;13.778;2022-08-14T11:28:57;67028.13;;;32.56;37.34
23131;BME280;11734;51.046;13.778;2022-08-14T11:31:27;67138.75;;;32.12;38.69
23131;BME280;11734;51.046;13.778;2022-08-14T11:34:05;67359.06;;;31.44;40.11
23131;BME280;11734;51.046;13.778;2022-08-14T11:36:53;67416.25;;;30.99;42.14
23131;BME280;11734;51.046;13.778;2022-08-14T11:39:41;67494.50;;;30.86;42.33
23131;BME280;11734;51.046;13.778;2022-08-14T11:42:20;67479.16;;;30.79;42.63
23131;BME280;11734;51.046;13.778;2022-08-14T11:45:10;67530.63;;;30.94;41.78
23131;BME280;11734;51.046;13.778;2022-08-14T11:47:45;67421.91;;;31.14;41.31
23131;BME280;11734;51.046;13.778;2022-08-14T11:50:34;67520.84;;;30.95;41.99
23131;BME280;11734;51.046;13.778;2022-08-14T11:53:06;67668.03;;;30.68;41.31
23131;BME280;11734;51.046;13.778;2022-08-14T11:55:36;67950.63;;;30.15;41.94
23131;BME280;11734;51.046;13.778;2022-08-14T11:58:08;67900.00;;;29.94;43.14
23131;BME280;11734;51.046;13.778;2022-08-14T12:00:48;67847.19;;;29.93;43.22
23131;BME280;11734;51.046;13.778;2022-08-14T12:03:15;67805.91;;;29.75;44.95
23131;BME280;11734;51.046;13.778;2022-08-14T12:06:15;67740.31;;;29.40;47.39
23131;BME280;11734;51.046;13.778;2022-08-14T12:08:56;67780.34;;;29.10;49.15
23131;BME280;11734;51.046;13.778;2022-08-14T12:11:37;67771.09;;;28.89;50.12
23131;BME280;11734;51.046;13.778;2022-08-14T12:14:10;67816.66;;;28.67;50.67
23131;BME280;11734;51.046;13.778;2022-08-14T12:16:59;67757.88;;;28.63;51.59
23131;BME280;11734;51.046;13.778;2022-08-14T12:19:28;67768.97;;;28.50;51.47
23131;BME280;11734;51.046;13.778;2022-08-14T12:22:01;67787.00;;;28.54;50.93
23131;BME280;11734;51.046;13.778;2022-08-14T12:24:29;67763.59;;;28.53;50.53
23131;BME280;11734;51.046;13.778;2022-08-14T12:27:03;67809.97;;;28.61;50.90
23131;BME280;11734;51.046;13.778;2022-08-14T12:29:33;67771.13;;;28.70;50.14
23131;BME280;11734;51.046;13.778;2022-08-14T12:32:03;67725.28;;;28.82;50.26
23131;BME280;11734;51.046;13.778;2022-08-14T12:34:35;67670.50;;;28.87;49.90
23131;BME280;11734;51.046;13.778;2022-08-14T12:37:05;67733.91;;;28.80;50.40
23131;BME280;11734;51.046;13.778;2022-08-14T12:39:34;67697.56;;;28.82;50.54
23131;BME280;11734;51.046;13.778;2022-08-14T12:42:07;67718.84;;;28.86;50.32
23131;BME280;11734;51.046;13.778;2022-08-14T12:44:55;67763.88;;;28.83;49.85
23131;BME280;11734;51.046;13.778;2022-08-14T12:47:30;67723.19;;;28.85;50.28
23131;BME280;11734;51.046;13.778;2022-08-14T12:49:59;67701.06;;;28.92;50.13
23131;BME280;11734;51.046;13.778;2022-08-14T12:52:37;67690.84;;;28.95;50.38
23131;BME280;11734;51.046;13.778;2022-08-14T12:55:26;67667.56;;;28.99;50.37
23131;BME280;11734;51.046;13.778;2022-08-14T12:58:16;67697.00;;;29.03;50.03
23131;BME280;11734;51.046;13.778;2022-08-14T13:01:05;67697.06;;;29.06;49.99
23131;BME280;11734;51.046;13.778;2022-08-14T13:03:49;67649.50;;;29.17;49.96
23131;BME280;11734;51.046;13.778;2022-08-14T13:06:18;67624.78;;;29.29;49.82
23131;BME280;11734;51.046;13.778;2022-08-14T13:08:50;67621.13;;;29.36;49.27
23131;BME280;11734;51.046;13.778;2022-08-14T13:11:33;67483.28;;;29.49;49.45
23131;BME280;11734;51.046;13.778;2022-08-14T13:14:08;67574.16;;;29.53;49.08
23131;BME280;11734;51.046;13.778;2022-08-14T13:16:44;67545.78;;;29.46;49.01
23131;BME280;11734;51.046;13.778;2022-08-14T13:19:17;67645.03;;;29.35;49.08
23131;BME280;11734;51.046;13.778;2022-08-14T13:21:48;67596.66;;;29.36;49.26
23131;BME280;11734;51.046;13.778;2022-08-14T13:24:37;67546.78;;;29.42;49.63
23131;BME280;11734;51.046;13.778;2022-08-14T13:27:06;67544.53;;;29.65;48.83
23131;BME280;11734;51.046;13.778;2022-08-14T13:29:40;67469.31;;;29.86;48.18
23131;BME280;11734;51.046;13.778;2022-08-14T13:32:13;67505.28;;;29.89;47.56
23131;BME280;11734;51.046;13.778;2022-08-14T13:34:43;67473.38;;;30.00;47.14
23131;BME280;11734;51.046;13.778;2022-08-14T13:37:15;67525.53;;;29.95;47.62
23131;BME280;11734;51.046;13.778;2022-08-14T13:39:48;67642.78;;;29.80;46.79
23131;BME280;11734;51.046;13.778;2022-08-14T13:42:24;67675.69;;;29.68;46.30
23131;BME280;11734;51.046;13.778;2022-08-14T13:44:59;67682.09;;;29.62;46.84
23131;BME280;11734;51.046;13.778;2022-08-14T13:47:29;67708.50;;;29.76;45.47
23131;BME280;11734;51.046;13.778;2022-08-14T13:50:01;67670.78;;;29.91;45.40